Time;durP1;ratioP1;P1;durP2;ratioP2;P2;SDS_P1;SDS_P2;PMS_P1;PMS_P2;Temp;Humidity;BMP_temperature;BMP_pressure;BME280_temperature;BME280_humidity;BME280_pressure;Samples;Min_cycle;Max_cycle;Signal;HPM_P1;HPM_P2
2022/03/31 00:01:03;;;;;;;7.90;4.53;;;;;;;2.12;94.31;100529.47;5094239;28;20094;-71
2022/03/31 00:03:31;;;;;;;7.72;4.57;;;;;;;2.02;94.18;100525.66;5093764;28;20127;-72
2022/03/31 00:05:59;;;;;;;8.10;3.85;;;;;;;1.98;94.14;100531.53;5075780;28;20047;-70
2022/03/31 00:08:27;;;;;;;8.50;4.15;;;;;;;1.93;94.60;100540.78;5093534;28;20094;-71
2022/03/31 00:10:59;;;;;;;5.57;3.40;;;;;;;1.83;94.38;100530.88;5094018;28;20048;-72
2022/03/31 00:13:30;;;;;;;7.55;4.15;;;;;;;1.76;94.83;100528.81;5075679;28;20075;-71
2022/03/31 00:15:59;;;;;;;7.60;3.50;;;;;;;1.70;94.81;100525.97;5093957;28;20063;-71
2022/03/31 00:18:29;;;;;;;6.93;3.75;;;;;;;1.68;94.95;100532.78;5093515;28;20060;-71
2022/03/31 00:20:57;;;;;;;8.10;3.80;;;;;;;1.51;94.70;100527.75;5093807;28;20036;-71
2022/03/31 00:23:25;;;;;;;7.75;3.85;;;;;;;1.58;95.26;100522.03;5093506;28;20048;-70
2022/03/31 00:25:53;;;;;;;10.45;4.68;;;;;;;1.65;95.93;100528.38;5093221;28;20048;-71
2022/03/31 00:28:23;;;;;;;10.40;4.65;;;;;;;1.62;95.88;100529.13;5093267;28;20051;-71
2022/03/31 00:30:51;;;;;;;10.02;4.38;;;;;;;1.60;96.14;100525.56;5093134;28;20054;-71
2022/03/31 00:33:19;;;;;;;9.75;5.10;;;;;;;1.57;95.90;100525.44;5093170;28;20055;-71
2022/03/31 00:35:47;;;;;;;10.15;4.50;;;;;;;1.51;96.32;100514.84;5093511;28;20052;-71
2022/03/31 00:38:15;;;;;;;9.27;4.80;;;;;;;1.68;96.25;100523.31;5093109;28;20048;-72
2022/03/31 00:40:43;;;;;;;11.10;5.65;;;;;;;1.66;97.02;100518.91;5093189;28;20100;-71
2022/03/31 00:43:12;;;;;;;11.48;5.50;;;;;;;1.67;96.85;100515.50;5093268;28;20050;-70
2022/03/31 00:45:53;;;;;;;12.50;5.70;;;;;;;1.64;96.66;100514.56;5093073;28;20052;-71
2022/03/31 00:48:21;;;;;;;11.93;5.68;;;;;;;1.61;96.38;100509.25;5093491;28;20059;-71
2022/03/31 00:50:49;;;;;;;12.02;5.60;;;;;;;1.60;96.83;100504.91;5092788;28;20505;-71
2022/03/31 00:53:17;;;;;;;11.38;5.30;;;;;;;1.68;96.55;100509.53;5093086;28;20064;-71
2022/03/31 00:56:02;;;;;;;15.32;6.35;;;;;;;1.71;96.68;100507.06;5093336;28;20062;-71
2022/03/31 00:58:31;;;;;;;12.43;5.75;;;;;;;1.61;97.39;100508.38;5093085;28;20051;-70
2022/03/31 01:01:01;;;;;;;14.13;5.82;;;;;;;1.54;97.11;100501.16;5092764;28;20043;-71
2022/03/31 01:03:29;;;;;;;20.63;7.03;;;;;;;1.43;96.66;100515.31;5092605;28;20459;-70
2022/03/31 01:05:58;;;;;;;16.20;7.10;;;;;;;1.47;97.37;100512.94;5092616;28;20062;-70
2022/03/31 01:08:26;;;;;;;16.83;6.18;;;;;;;1.45;97.24;100504.22;5092446;28;20086;-71
2022/03/31 01:10:56;;;;;;;12.95;5.38;;;;;;;1.51;97.09;100504.50;5092758;28;20059;-71
2022/03/31 01:13:24;;;;;;;16.25;7.13;;;;;;;1.41;97.00;100502.31;5092397;28;20044;-70
2022/03/31 01:15:52;;;;;;;15.45;5.75;;;;;;;1.46;97.70;100495.66;5092608;28;20048;-71
2022/03/31 01:18:21;;;;;;;17.60;6.57;;;;;;;1.57;97.43;100493.53;5092269;28;20093;-71
2022/03/31 01:20:49;;;;;;;22.92;7.70;;;;;;;1.59;97.76;100490.22;5092869;28;20071;-70
2022/03/31 01:23:18;;;;;;;21.70;6.95;;;;;;;1.61;97.69;100488.56;5092541;28;20044;-70
2022/03/31 01:25:46;;;;;;;17.23;7.22;;;;;;;1.58;97.62;100485.84;5092554;28;20052;-71
2022/03/31 01:28:14;;;;;;;18.73;6.00;;;;;;;1.54;97.90;100483.94;5092302;28;20064;-74
2022/03/31 01:30:42;;;;;;;14.18;6.13;;;;;;;1.52;97.29;100479.53;5092214;28;20127;-75
2022/03/31 01:33:10;;;;;;;15.48;6.07;;;;;;;1.45;97.79;100477.50;5092133;28;20048;-75
2022/03/31 01:35:39;;;;;;;20.23;7.15;;;;;;;1.39;97.43;100472.06;5092031;28;20054;-74
2022/03/31 01:38:06;;;;;;;20.58;7.63;;;;;;;1.26;97.89;100480.97;5091994;28;20435;-75
2022/03/31 01:40:36;;;;;;;18.23;6.28;;;;;;;1.28;97.73;100469.00;5092126;28;20044;-75
2022/03/31 01:43:04;;;;;;;13.90;6.10;;;;;;;1.29;97.96;100471.66;5092317;28;20087;-74
2022/03/31 01:45:33;;;;;;;14.73;5.53;;;;;;;1.24;97.77;100477.44;5092303;28;20210;-74
2022/03/31 01:48:04;;;;;;;19.17;6.40;;;;;;;1.23;98.17;100466.22;5092178;28;20096;-74
2022/03/31 01:50:33;;;;;;;14.98;5.63;;;;;;;1.20;97.83;100467.78;5092280;28;20040;-74
2022/03/31 01:53:01;;;;;;;16.58;6.47;;;;;;;1.29;98.34;100466.50;5092220;28;20052;-73
2022/03/31 01:55:30;;;;;;;11.05;5.25;;;;;;;1.16;98.38;100465.88;5092261;28;20132;-73
2022/03/31 01:57:59;;;;;;;11.25;5.22;;;;;;;1.23;98.00;100471.38;5094423;28;20127;-74
2022/03/31 02:00:27;;;;;;;11.82;5.07;;;;;;;1.29;98.45;100475.94;5096036;28;20048;-73
2022/03/31 02:02:55;;;;;;;10.75;4.97;;;;;;;1.21;98.18;100467.84;5095990;28;20052;-73
2022/03/31 02:05:23;;;;;;;8.77;4.80;;;;;;;1.20;98.04;100472.94;5096334;28;20453;-73
2022/03/31 02:07:54;;;;;;;10.93;4.65;;;;;;;1.26;98.13;100468.06;5096026;28;20403;-74
2022/03/31 02:10:25;;;;;;;9.05;5.22;;;;;;;1.16;98.22;100464.19;5096172;28;20044;-73
2022/03/31 02:12:53;;;;;;;12.05;5.57;;;;;;;1.16;97.75;100468.47;5096052;28;20093;-74
2022/03/31 02:15:23;;;;;;;11.73;6.40;;;;;;;1.16;98.21;100465.88;5096024;28;20086;-74
2022/03/31 02:17:53;;;;;;;12.45;5.57;;;;;;;1.14;98.34;100468.38;5095768;28;20499;-74
2022/03/31 02:20:21;;;;;;;14.65;5.97;;;;;;;1.18;98.60;100459.06;5095992;28;20472;-73
2022/03/31 02:22:49;;;;;;;12.45;6.43;;;;;;;1.21;98.36;100464.38;5096094;28;20109;-74
2022/03/31 02:25:17;;;;;;;12.25;5.55;;;;;;;1.17;98.22;100462.47;5096045;28;20052;-74
2022/03/31 02:27:45;;;;;;;10.48;4.85;;;;;;;1.10;98.29;100458.75;5095980;28;20139;-70
2022/03/31 02:30:12;;;;;;;13.73;6.05;;;;;;;1.10;98.19;100463.03;5095780;28;20105;-70
2022/03/31 02:32:42;;;;;;;13.75;5.55;;;;;;;1.13;98.52;100461.47;5095505;28;20044;-70
2022/03/31 02:35:11;;;;;;;13.50;6.22;;;;;;;1.16;98.54;100458.13;5087513;28;20498;-69
2022/03/31 02:37:39;;;;;;;13.50;5.75;;;;;;;1.22;98.51;100446.38;5095970;28;20048;-71
2022/03/31 02:40:07;;;;;;;17.73;5.88;;;;;;;1.22;98.30;100435.16;5095364;28;20044;-71
2022/03/31 02:42:36;;;;;;;12.35;7.43;;;;;;;1.21;98.56;100439.44;5095707;28;20048;-71
2022/03/31 02:45:05;;;;;;;14.52;6.30;;;;;;;1.23;98.63;100442.09;5095745;28;20044;-71
2022/03/31 02:47:34;;;;;;;15.30;6.13;;;;;;;1.21;98.60;100441.13;5095929;28;20047;-71
2022/03/31 02:50:06;;;;;;;13.95;5.97;;;;;;;1.23;98.73;100444.66;5095006;28;20474;-69
2022/03/31 02:55:25;;;;;;;11.55;4.93;;;;;;;1.24;98.46;100438.69;5087335;28;20476;-70
2022/03/31 02:57:54;;;;;;;12.95;5.43;;;;;;;1.25;99.01;100437.88;5095323;28;20067;-71
2022/03/31 03:00:21;;;;;;;16.35;5.35;;;;;;;1.28;98.79;100432.84;5095430;28;20047;-69
2022/03/31 03:02:50;;;;;;;13.55;5.25;;;;;;;1.33;99.12;100426.16;5095287;28;20055;-69
2022/03/31 03:05:20;;;;;;;13.15;4.97;;;;;;;1.38;99.19;100414.34;5095257;28;20079;-69
2022/03/31 03:07:49;;;;;;;14.40;5.00;;;;;;;1.34;98.80;100421.88;5095023;28;20043;-69
2022/03/31 03:10:17;;;;;;;11.80;4.30;;;;;;;1.33;98.53;100423.59;5095128;28;20230;-69
2022/03/31 03:12:44;;;;;;;9.43;4.40;;;;;;;1.35;98.43;100419.38;5094989;28;20047;-69
2022/03/31 03:15:13;;;;;;;14.13;5.35;;;;;;;1.27;98.70;100423.31;5094911;28;20055;-72
2022/03/31 03:17:42;;;;;;;12.85;4.53;;;;;;;1.35;98.55;100423.66;5094907;28;20432;-73
2022/03/31 03:20:13;;;;;;;10.32;5.43;;;;;;;1.36;98.42;100415.97;5086858;28;20167;-72
2022/03/31 03:22:45;;;;;;;10.85;4.80;;;;;;;1.42;98.76;100413.66;5095034;28;20079;-73
2022/03/31 03:25:15;;;;;;;13.38;5.25;;;;;;;1.40;98.54;100422.16;5094511;28;20056;-69
2022/03/31 03:27:43;;;;;;;13.77;4.40;;;;;;;1.39;98.65;100420.38;5094889;28;20094;-70
2022/03/31 03:30:13;;;;;;;10.40;4.80;;;;;;;1.32;98.74;100414.06;5086592;28;20044;-69
2022/03/31 03:32:41;;;;;;;16.40;6.25;;;;;;;1.28;98.83;100425.09;5094906;28;20136;-69
2022/03/31 03:35:11;;;;;;;16.60;6.03;;;;;;;1.20;98.58;100421.28;5094677;28;20048;-69
2022/03/31 03:37:40;;;;;;;17.90;6.47;;;;;;;1.30;98.65;100429.50;5094397;28;20043;-69
2022/03/31 03:40:12;;;;;;;13.50;5.47;;;;;;;1.21;98.72;100425.63;5094772;28;20436;-69
2022/03/31 03:42:40;;;;;;;15.50;5.65;;;;;;;1.31;98.30;100428.69;5095116;28;20067;-69
2022/03/31 03:45:10;;;;;;;15.35;6.68;;;;;;;1.29;98.77;100424.28;5094122;28;20044;-70
2022/03/31 03:47:39;;;;;;;16.73;6.75;;;;;;;1.29;98.46;100432.03;5094550;28;20040;-70
2022/03/31 03:50:07;;;;;;;15.40;6.97;;;;;;;1.45;98.58;100426.69;5094074;28;20066;-69
2022/03/31 03:52:35;;;;;;;15.55;6.40;;;;;;;1.42;98.99;100423.09;5093930;28;20495;-70
2022/03/31 03:55:03;;;;;;;16.77;6.93;;;;;;;1.39;98.72;100425.56;5093860;28;20094;-70
2022/03/31 03:57:33;;;;;;;17.08;7.28;;;;;;;1.42;99.06;100425.69;5094238;28;20044;-69
2022/03/31 04:00:01;;;;;;;16.52;7.60;;;;;;;1.37;98.44;100428.06;5093681;28;20043;-69
2022/03/31 04:02:29;;;;;;;19.65;7.65;;;;;;;1.43;98.92;100428.34;5094000;28;20067;-70
2022/03/31 04:04:57;;;;;;;23.02;8.73;;;;;;;1.44;98.91;100424.94;5093621;28;20123;-69
2022/03/31 04:07:24;;;;;;;18.60;7.47;;;;;;;1.56;99.07;100429.75;5093592;28;20531;-69
2022/03/31 04:09:52;;;;;;;17.95;8.00;;;;;;;1.50;98.70;100419.16;5093410;28;20090;-69
2022/03/31 04:12:20;;;;;;;22.23;8.85;;;;;;;1.58;99.15;100413.47;5093559;28;20048;-69
2022/03/31 04:14:49;;;;;;;19.38;7.63;;;;;;;1.68;98.73;100419.03;5093826;28;20421;-69
2022/03/31 04:17:17;;;;;;;24.45;7.85;;;;;;;1.66;98.63;100420.69;5093571;28;20059;-69
2022/03/31 04:19:45;;;;;;;18.42;6.97;;;;;;;1.63;98.15;100418.84;5092945;28;20058;-69
2022/03/31 04:22:13;;;;;;;14.55;6.07;;;;;;;1.59;98.42;100409.19;5093160;28;20452;-69
2022/03/31 04:24:41;;;;;;;18.27;7.45;;;;;;;1.58;98.08;100408.31;5093411;28;20441;-69
2022/03/31 04:27:09;;;;;;;17.38;6.88;;;;;;;1.60;98.90;100411.84;5093452;28;20047;-69
2022/03/31 04:29:37;;;;;;;16.85;6.80;;;;;;;1.68;98.83;100408.69;5093501;28;20048;-69
2022/03/31 04:32:07;;;;;;;19.20;7.32;;;;;;;1.76;99.15;100407.31;5092847;28;20122;-69
2022/03/31 04:34:35;;;;;;;15.40;5.95;;;;;;;1.70;98.49;100407.06;5093169;28;20048;-69
2022/03/31 04:37:03;;;;;;;29.58;7.70;;;;;;;1.71;98.37;100403.66;5092858;28;20471;-70
2022/03/31 04:39:31;;;;;;;13.32;5.65;;;;;;;1.69;98.66;100406.19;5092840;28;20047;-74
2022/03/31 04:41:59;;;;;;;17.27;6.95;;;;;;;1.74;98.29;100403.78;5093115;28;20055;-73
2022/03/31 04:44:32;;;;;;;14.65;6.13;;;;;;;1.70;98.63;100404.47;5093256;28;20072;-70
2022/03/31 04:47:00;;;;;;;19.95;6.63;;;;;;;1.71;98.89;100398.50;5092993;28;20036;-70
2022/03/31 04:49:29;;;;;;;16.67;7.00;;;;;;;1.67;98.65;100401.75;5093068;28;20048;-71
2022/03/31 04:51:57;;;;;;;14.52;5.97;;;;;;;1.72;98.90;100402.84;5092599;28;20040;-70
2022/03/31 04:54:25;;;;;;;16.10;6.22;;;;;;;1.74;99.31;100404.66;5092873;28;20083;-71
2022/03/31 04:56:53;;;;;;;16.52;5.55;;;;;;;1.81;99.05;100388.59;5092835;28;20048;-71
2022/03/31 04:59:21;;;;;;;13.25;5.63;;;;;;;1.71;97.91;100394.19;5092761;28;20080;-72
2022/03/31 05:01:49;;;;;;;9.80;4.95;;;;;;;1.73;97.92;100396.84;5092869;28;20060;-70
2022/03/31 05:04:17;;;;;;;12.00;4.28;;;;;;;1.70;98.53;100394.13;5092736;28;20067;-70
2022/03/31 05:06:46;;;;;;;13.43;4.97;;;;;;;1.71;98.26;100394.19;5092808;28;20048;-70
2022/03/31 05:09:14;;;;;;;10.75;4.65;;;;;;;1.70;98.38;100402.78;5092947;28;20064;-70
2022/03/31 05:11:42;;;;;;;9.23;3.88;;;;;;;1.71;98.08;100398.50;5092085;28;20131;-70
2022/03/31 05:14:10;;;;;;;13.25;4.43;;;;;;;1.72;98.00;100405.44;5092465;28;20093;-70
2022/03/31 05:16:38;;;;;;;10.23;4.43;;;;;;;1.73;98.07;100394.25;5092224;28;20078;-70
2022/03/31 05:19:06;;;;;;;7.68;3.70;;;;;;;1.73;97.77;100395.16;5092471;28;20036;-70
2022/03/31 05:21:34;;;;;;;8.98;3.20;;;;;;;1.68;97.59;100391.50;5092177;28;20456;-70
2022/03/31 05:24:05;;;;;;;8.43;3.50;;;;;;;1.67;97.79;100392.31;5092079;28;20116;-70
2022/03/31 05:26:33;;;;;;;8.40;3.40;;;;;;;1.61;97.69;100398.09;5092538;28;20115;-70
2022/03/31 05:29:01;;;;;;;9.02;3.45;;;;;;;1.63;97.94;100390.41;5092042;28;20086;-70
2022/03/31 05:31:29;;;;;;;9.38;4.07;;;;;;;1.64;97.43;100398.22;5091473;28;20441;-70
2022/03/31 05:33:57;;;;;;;7.72;3.47;;;;;;;1.64;97.39;100398.22;5092097;28;20062;-71
2022/03/31 05:36:25;;;;;;;10.15;3.42;;;;;;;1.61;97.28;100400.69;5092382;28;20091;-69
2022/03/31 05:38:56;;;;;;;9.02;3.03;;;;;;;1.60;97.24;100391.16;5092479;28;20121;-69
2022/03/31 05:41:25;;;;;;;12.18;3.65;;;;;;;1.59;96.96;100393.69;5091939;28;20541;-69
2022/03/31 05:43:53;;;;;;;6.22;2.90;;;;;;;1.61;97.57;100392.94;5091845;28;20135;-70
2022/03/31 05:46:22;;;;;;;8.43;3.45;;;;;;;1.67;97.25;100399.19;5092198;28;20052;-70
2022/03/31 05:48:50;;;;;;;7.88;3.22;;;;;;;1.68;96.82;100393.19;5092340;28;20403;-70
2022/03/31 05:51:18;;;;;;;8.25;3.38;;;;;;;1.71;96.76;100393.31;5092292;28;20048;-70
2022/03/31 05:53:46;;;;;;;11.18;4.40;;;;;;;1.72;96.93;100384.75;5092132;28;20089;-70
2022/03/31 05:56:15;;;;;;;8.27;3.25;;;;;;;1.79;96.89;100381.59;5092166;28;20074;-72
2022/03/31 05:58:44;;;;;;;9.18;3.33;;;;;;;1.78;96.26;100369.47;5091943;28;20503;-70
2022/03/31 06:01:12;;;;;;;11.23;3.83;;;;;;;1.78;96.76;100377.25;5092198;28;20090;-70
2022/03/31 06:03:40;;;;;;;10.40;4.00;;;;;;;1.79;96.23;100377.31;5092216;28;20127;-70
2022/03/31 06:06:09;;;;;;;9.07;3.92;;;;;;;1.76;96.07;100371.13;5092089;28;20089;-69
2022/03/31 06:08:37;;;;;;;12.85;4.82;;;;;;;1.80;96.63;100383.34;5092141;28;20052;-70
2022/03/31 06:11:05;;;;;;;12.32;5.10;;;;;;;1.75;97.02;100370.25;5092169;28;20059;-70
2022/03/31 06:13:33;;;;;;;16.58;7.18;;;;;;;1.76;96.98;100386.63;5091871;28;20125;-70
2022/03/31 06:16:03;;;;;;;17.85;7.57;;;;;;;1.74;97.04;100377.94;5092135;28;20040;-70
2022/03/31 06:18:31;;;;;;;17.23;7.28;;;;;;;1.78;97.50;100379.81;5091889;28;20086;-69
2022/03/31 06:21:01;;;;;;;13.65;6.45;;;;;;;1.76;97.32;100374.59;5091548;28;20369;-71
2022/03/31 06:23:29;;;;;;;14.77;6.45;;;;;;;1.81;97.34;100382.53;5091833;28;20123;-70
2022/03/31 06:25:57;;;;;;;18.40;6.68;;;;;;;1.80;97.66;100385.94;5091977;28;20050;-71
2022/03/31 06:28:28;;;;;;;16.45;7.35;;;;;;;1.78;97.51;100393.63;5091815;28;20468;-73
2022/03/31 06:30:56;;;;;;;16.40;6.65;;;;;;;1.83;97.62;100399.00;5091660;28;20052;-74
2022/03/31 06:33:26;;;;;;;17.02;7.22;;;;;;;1.83;97.17;100399.88;5091765;28;20117;-74
2022/03/31 06:35:54;;;;;;;17.58;6.90;;;;;;;1.83;97.67;100402.47;5091839;28;20093;-73
2022/03/31 06:38:22;;;;;;;17.30;6.97;;;;;;;1.81;97.41;100400.63;5091332;28;20441;-73
2022/03/31 06:43:32;;;;;;;19.80;7.72;;;;;;;1.85;97.54;100399.94;5093128;28;20486;-74
2022/03/31 06:46:01;;;;;;;15.95;6.78;;;;;;;1.82;97.24;100404.97;5095359;28;20076;-73
2022/03/31 06:48:31;;;;;;;14.00;5.57;;;;;;;1.90;97.20;100398.44;5095380;28;20051;-74
2022/03/31 06:51:00;;;;;;;11.02;4.85;;;;;;;1.92;97.39;100389.03;5094964;28;20440;-74
2022/03/31 06:53:27;;;;;;;15.18;4.78;;;;;;;2.08;97.04;100385.34;5095308;28;20122;-74
2022/03/31 06:55:55;;;;;;;11.75;4.82;;;;;;;2.15;96.55;100387.31;5095187;28;20058;-74
2022/03/31 06:58:25;;;;;;;11.57;5.03;;;;;;;2.19;96.49;100379.75;5095082;28;20074;-73
2022/03/31 07:00:53;;;;;;;13.88;4.50;;;;;;;2.24;95.75;100374.75;5094725;28;20445;-73
2022/03/31 07:03:21;;;;;;;8.38;4.18;;;;;;;2.43;95.73;100376.34;5094914;28;20055;-73
2022/03/31 07:05:51;;;;;;;11.07;4.13;;;;;;;2.56;95.50;100379.47;5094966;28;20047;-73
2022/03/31 07:08:19;;;;;;;13.13;5.00;;;;;;;2.61;95.75;100382.22;5094979;28;20048;-72
2022/03/31 07:10:47;;;;;;;10.63;4.40;;;;;;;2.73;94.81;100374.91;5094590;28;20139;-75
2022/03/31 07:13:15;;;;;;;10.05;4.13;;;;;;;2.79;94.50;100367.38;5094631;28;20494;-72
2022/03/31 07:15:43;;;;;;;6.57;3.95;;;;;;;2.89;93.89;100372.06;5094843;28;20048;-70
2022/03/31 07:18:11;;;;;;;11.35;4.43;;;;;;;3.01;93.64;100373.34;5094673;28;20464;-69
2022/03/31 07:20:39;;;;;;;9.93;4.45;;;;;;;2.87;92.76;100378.00;5094858;28;20048;-70
2022/03/31 07:23:09;;;;;;;13.18;4.53;;;;;;;2.95;93.28;100387.81;5094912;28;20112;-70
2022/03/31 07:25:38;;;;;;;9.02;4.10;;;;;;;3.00;93.39;100389.69;5094914;28;20047;-70
2022/03/31 07:28:06;;;;;;;11.85;4.55;;;;;;;3.03;93.35;100387.22;5094868;28;20056;-72
2022/03/31 07:30:34;;;;;;;16.27;5.88;;;;;;;3.05;93.24;100380.38;5094504;28;20461;-71
2022/03/31 07:33:04;;;;;;;10.55;4.72;;;;;;;3.20;93.51;100380.91;5094381;28;20048;-71
2022/03/31 07:35:37;;;;;;;11.52;4.57;;;;;;;3.37;93.47;100373.72;5094831;28;20056;-70
2022/03/31 07:38:07;;;;;;;8.95;4.50;;;;;;;3.40;92.39;100377.28;5094241;28;20507;-70
2022/03/31 07:40:39;;;;;;;10.10;5.57;;;;;;;3.40;92.80;100374.69;5094439;28;20044;-70
2022/03/31 07:43:08;;;;;;;10.27;5.35;;;;;;;3.41;91.57;100379.06;5094365;28;20055;-70
2022/03/31 07:45:39;;;;;;;11.68;5.03;;;;;;;3.51;91.82;100375.94;5094108;28;20083;-70
2022/03/31 07:48:09;;;;;;;11.38;5.00;;;;;;;3.37;91.02;100366.81;5094069;28;20047;-70
2022/03/31 07:50:38;;;;;;;13.02;5.13;;;;;;;3.55;92.81;100375.22;5094333;28;20087;-70
2022/03/31 07:53:06;;;;;;;10.80;4.72;;;;;;;3.60;91.94;100368.50;5094251;28;20093;-70
2022/03/31 07:55:35;;;;;;;11.18;5.90;;;;;;;3.57;91.08;100365.78;5093155;28;20050;-70
2022/03/31 07:58:05;;;;;;;9.00;4.78;;;;;;;3.55;91.20;100362.25;5093840;28;20452;-70
2022/03/31 08:00:32;;;;;;;9.98;4.93;;;;;;;3.63;91.33;100365.13;5093859;28;20040;-71
2022/03/31 08:03:01;;;;;;;13.52;5.15;;;;;;;3.65;90.92;100370.34;5093866;28;20040;-70
2022/03/31 08:05:30;;;;;;;9.23;4.93;;;;;;;3.51;89.86;100365.59;5094105;28;20044;-72
2022/03/31 08:07:58;;;;;;;8.68;5.13;;;;;;;3.60;90.57;100360.72;5093750;28;20055;-71
2022/03/31 08:10:27;;;;;;;10.55;5.20;;;;;;;3.57;90.60;100372.69;5093533;28;20528;-70
2022/03/31 08:12:55;;;;;;;9.65;4.63;;;;;;;3.53;90.86;100366.50;5093505;28;20047;-70
2022/03/31 08:15:25;;;;;;;9.68;4.93;;;;;;;3.66;91.06;100372.13;5093845;28;20131;-70
2022/03/31 08:17:54;;;;;;;7.00;4.07;;;;;;;3.51;90.39;100365.59;5093757;28;20059;-70
2022/03/31 08:20:22;;;;;;;9.85;4.90;;;;;;;3.71;90.77;100367.97;5093441;28;20051;-71
2022/03/31 08:22:50;;;;;;;9.38;5.13;;;;;;;3.80;89.48;100361.38;5093262;28;20051;-70
2022/03/31 08:25:18;;;;;;;9.15;4.30;;;;;;;4.00;89.91;100354.22;5093535;28;20075;-70
2022/03/31 08:27:47;;;;;;;15.98;5.53;;;;;;;4.26;88.79;100357.59;5093373;28;20044;-70
2022/03/31 08:30:21;;;;;;;10.38;4.97;;;;;;;4.30;86.95;100358.56;5093512;28;20129;-71
2022/03/31 08:32:50;;;;;;;14.20;5.68;;;;;;;4.62;88.62;100357.84;5093239;28;20086;-70
2022/03/31 08:35:18;;;;;;;12.07;5.10;;;;;;;4.85;87.86;100348.97;5093542;28;20121;-71
2022/03/31 08:37:47;;;;;;;9.27;5.47;;;;;;;5.01;86.56;100352.91;5093065;28;20055;-74
2022/03/31 09:44:37;;;;;;;8.73;4.20;;;;;;;4.71;80.01;100365.88;5092118;28;20513;-76
2022/03/31 09:47:06;;;;;;;9.80;4.50;;;;;;;4.84;80.67;100352.41;5092521;28;20089;-76
2022/03/31 09:49:36;;;;;;;9.27;4.30;;;;;;;4.96;80.27;100354.47;5092282;28;20051;-76
2022/03/31 09:52:08;;;;;;;8.50;4.45;;;;;;;4.83;79.24;100348.06;5092583;28;20048;-76
2022/03/31 09:54:37;;;;;;;6.10;3.85;;;;;;;4.67;79.51;100353.66;5091831;28;20054;-77
2022/03/31 09:57:07;;;;;;;7.60;4.05;;;;;;;4.71;78.81;100342.50;5092484;28;20044;-76
2022/03/31 09:59:39;;;;;;;10.05;4.45;;;;;;;4.66;78.89;100343.22;5092182;28;20056;-76
2022/03/31 10:02:08;;;;;;;8.98;4.25;;;;;;;4.56;79.16;100342.06;5092458;28;20052;-77
2022/03/31 10:04:36;;;;;;;9.00;4.47;;;;;;;4.51;78.42;100334.13;5092318;28;20040;-77
2022/03/31 10:07:05;;;;;;;8.60;4.10;;;;;;;4.41;79.63;100345.09;5092697;28;20130;-77
2022/03/31 10:09:35;;;;;;;7.80;4.30;;;;;;;4.56;79.43;100342.06;5092355;28;20040;-77
2022/03/31 10:12:13;;;;;;;7.38;4.38;;;;;;;4.40;79.31;100340.72;5091984;28;20466;-77
2022/03/31 10:14:49;;;;;;;8.48;4.18;;;;;;;4.45;79.65;100335.69;5092382;28;20046;-77
2022/03/31 10:17:18;;;;;;;9.25;4.45;;;;;;;4.53;78.49;100334.19;5092230;28;20079;-77
2022/03/31 10:19:46;;;;;;;8.38;4.22;;;;;;;4.39;79.08;100338.97;5095797;28;20123;-77
2022/03/31 10:24:58;;;;;;;7.63;4.07;;;;;;;4.69;80.54;100328.59;5094780;28;20044;-77
2022/03/31 10:27:27;;;;;;;7.63;4.32;;;;;;;5.09;79.46;100330.59;5096120;28;20048;-78
2022/03/31 10:30:09;;;;;;;8.15;4.25;;;;;;;5.28;77.78;100318.94;5095540;28;20121;-77
2022/03/31 10:32:37;;;;;;;7.85;4.13;;;;;;;5.33;78.24;100319.94;5095583;28;20040;-77
2022/03/31 10:35:05;;;;;;;7.88;3.95;;;;;;;5.66;77.94;100316.41;5095897;28;20079;-79
2022/03/31 10:37:37;;;;;;;9.70;4.30;;;;;;;5.38;75.86;100325.25;5095795;28;20052;-76
2022/03/31 10:40:08;;;;;;;8.00;4.22;;;;;;;5.30;75.31;100317.25;5095504;28;20112;-77
2022/03/31 10:42:37;;;;;;;7.72;4.28;;;;;;;5.40;75.06;100307.97;5095422;28;20521;-78
2022/03/31 10:45:13;;;;;;;8.73;4.32;;;;;;;5.70;75.65;100318.25;5095380;28;20050;-77
2022/03/31 10:47:43;;;;;;;8.00;4.25;;;;;;;5.79;74.95;100315.88;5095627;28;20105;-78
2022/03/31 10:50:24;;;;;;;8.27;3.80;;;;;;;5.89;74.43;100310.09;5095667;28;20055;-78
2022/03/31 10:53:00;;;;;;;7.25;4.13;;;;;;;6.27;74.82;100299.63;5095127;28;20093;-78
2022/03/31 10:55:36;;;;;;;7.65;4.07;;;;;;;5.82;71.44;100298.63;5095601;28;20085;-79
2022/03/31 10:58:06;;;;;;;7.68;4.07;;;;;;;5.91;73.11;100308.41;5095536;28;20105;-77
2022/03/31 11:00:38;;;;;;;7.10;4.10;;;;;;;6.20;73.94;100296.94;5095553;28;20051;-79
2022/03/31 11:03:08;;;;;;;7.38;4.22;;;;;;;6.32;71.96;100296.28;5095215;28;20051;-78
2022/03/31 11:05:45;;;;;;;7.38;4.55;;;;;;;6.42;71.98;100292.16;5095193;28;20482;-78
2022/03/31 11:08:17;;;;;;;8.35;4.50;;;;;;;6.44;72.36;100296.53;5094944;28;20094;-77
2022/03/31 11:10:48;;;;;;;7.57;4.40;;;;;;;6.38;70.72;100291.22;5095326;28;20505;-77
2022/03/31 11:13:18;;;;;;;9.00;4.78;;;;;;;6.41;71.45;100306.03;5095401;28;20282;-77
2022/03/31 11:15:55;;;;;;;9.00;4.45;;;;;;;6.30;70.61;100292.75;5095060;28;20483;-76
2022/03/31 11:18:24;;;;;;;6.93;3.95;;;;;;;6.38;71.61;100296.41;5095001;28;20086;-77
2022/03/31 11:20:56;;;;;;;8.48;4.05;;;;;;;6.01;69.61;100297.34;5095050;28;20048;-77
2022/03/31 11:23:24;;;;;;;7.00;3.90;;;;;;;6.13;70.49;100288.94;5095204;28;20097;-78
2022/03/31 11:25:53;;;;;;;8.45;4.47;;;;;;;5.82;69.83;100284.72;5095007;28;20067;-78
2022/03/31 11:28:21;;;;;;;8.40;4.30;;;;;;;5.96;70.53;100285.09;5094823;28;20507;-77
2022/03/31 11:30:49;;;;;;;7.53;3.90;;;;;;;5.93;70.08;100280.69;5093525;28;20143;-77
2022/03/31 11:33:19;;;;;;;8.43;3.97;;;;;;;6.21;71.02;100272.66;5094970;28;20127;-78
2022/03/31 11:35:52;;;;;;;8.52;4.13;;;;;;;6.29;69.63;100269.28;5094749;28;20127;-79
2022/03/31 11:38:20;;;;;;;7.80;4.05;;;;;;;6.51;70.52;100274.09;5094811;28;20052;-76
2022/03/31 11:40:52;;;;;;;8.18;4.10;;;;;;;6.50;69.46;100273.22;5094943;28;20522;-77
2022/03/31 11:43:21;;;;;;;8.65;4.70;;;;;;;6.45;69.67;100273.97;5094466;28;20491;-77
2022/03/31 11:45:55;;;;;;;19.95;6.60;;;;;;;6.38;69.08;100269.50;5094757;28;20436;-77
2022/03/31 11:48:33;;;;;;;9.35;4.93;;;;;;;6.65;69.87;100270.06;5094590;28;20052;-76
2022/03/31 11:51:04;;;;;;;9.70;5.15;;;;;;;6.64;69.79;100267.41;5095045;28;20048;-78
2022/03/31 11:53:40;;;;;;;10.07;4.65;;;;;;;6.57;70.15;100264.69;5094177;28;20448;-77
2022/03/31 11:56:15;;;;;;;9.05;4.63;;;;;;;6.29;69.96;100269.28;5094724;28;20040;-77
2022/03/31 11:58:47;;;;;;;7.75;4.43;;;;;;;6.23;70.31;100276.16;5094205;28;20062;-77
2022/03/31 12:01:15;;;;;;;8.18;4.47;;;;;;;6.26;71.24;100269.22;5094289;28;20052;-77
2022/03/31 12:03:44;;;;;;;9.90;5.00;;;;;;;6.42;70.93;100271.31;5094360;28;20123;-77
2022/03/31 12:06:15;;;;;;;7.55;4.68;;;;;;;6.55;70.46;100268.13;5094127;28;20135;-76
2022/03/31 12:08:44;;;;;;;10.98;5.13;;;;;;;6.45;69.08;100266.16;5094104;28;20565;-77
2022/03/31 12:11:14;;;;;;;7.60;4.57;;;;;;;6.53;70.41;100267.19;5094279;28;20085;-77
2022/03/31 12:13:51;;;;;;;8.68;4.93;;;;;;;6.21;70.18;100267.44;5094088;28;20535;-77
2022/03/31 12:16:20;;;;;;;9.23;4.63;;;;;;;6.38;70.13;100274.69;5087175;28;20093;-77
2022/03/31 12:18:56;;;;;;;9.93;4.72;;;;;;;6.41;70.64;100267.81;5093734;28;20052;-77
2022/03/31 12:21:25;;;;;;;10.95;5.28;;;;;;;6.36;70.75;100264.25;5093883;28;20048;-77
2022/03/31 12:23:53;;;;;;;9.38;5.05;;;;;;;6.38;71.25;100264.28;5093698;28;20048;-77
2022/03/31 12:26:41;;;;;;;8.95;5.05;;;;;;;6.45;71.64;100274.84;5093553;28;20157;-77
2022/03/31 12:29:16;;;;;;;8.77;5.10;;;;;;;6.36;70.85;100268.56;5094107;28;20044;-77
2022/03/31 12:31:44;;;;;;;8.95;5.07;;;;;;;6.40;69.97;100278.22;5093454;28;20143;-77
2022/03/31 12:34:14;;;;;;;9.10;5.53;;;;;;;6.31;72.02;100273.69;5093711;28;20063;-77
2022/03/31 12:36:43;;;;;;;11.38;5.88;;;;;;;6.07;72.90;100262.78;5093386;28;20067;-77
2022/03/31 12:39:11;;;;;;;10.25;5.70;;;;;;;6.11;73.09;100269.81;5093732;28;20052;-76
2022/03/31 12:41:40;;;;;;;10.55;6.45;;;;;;;6.24;71.86;100270.06;5093347;28;20098;-77
2022/03/31 12:44:11;;;;;;;10.45;5.93;;;;;;;6.21;72.56;100267.44;5093487;28;20076;-78
2022/03/31 12:46:44;;;;;;;10.55;5.88;;;;;;;6.02;74.29;100267.00;5093341;28;20040;-77
2022/03/31 12:49:19;;;;;;;13.07;6.70;;;;;;;5.76;74.96;100279.38;5094098;28;20438;-77
2022/03/31 12:51:49;;;;;;;11.93;6.65;;;;;;;5.84;75.46;100276.13;5093563;28;20047;-77